Weather at Bari Coast Guard Heliport

Public forecast

Using degrees Celsius for public forecast. Weather courtesy of forecast.io.

Closest aviation weather report (METAR) to Bari Coast Guard Heliport

Closest report is Bari Karol Wojtyła Airport, 3.9 nm (7.3 km) W.

2024/05/21 14:20 (retrieved 25 minutes ago)

LIBD 211420Z 25014KT 230V290 CAVOK 30/12 Q1008

Closest aviation forecast (TAF) to Bari Coast Guard Heliport

Closest forecast is Bari Karol Wojtyła Airport, 3.9 nm (7.3 km) W.

2024/05/21 12:00 (retrieved 3 hours ago)

TAF LIBD 211100Z 2112/2212 27016KT CAVOK BECMG 2207/2209 34014KT TAF LIBP 211100Z 2112/2212 06012KT 9999 SCT020 TEMPO 2112/2118 TSRA BECMG 2118/2120 21012KT TEMPO 2121/2205 21015G25KT BECMG 2210/2212 06012KT